sensor_id;sensor_type;location;lat;lon;timestamp;temperature;humidity
23143;DHT22;11740;51.168;4.112;2022-12-24T00:00:08;10.20;25.90
23143;DHT22;11740;51.168;4.112;2022-12-24T00:02:36;10.20;26.60
23143;DHT22;11740;51.168;4.112;2022-12-24T00:05:03;10.30;24.70
23143;DHT22;11740;51.168;4.112;2022-12-24T00:07:31;10.20;29.90
23143;DHT22;11740;51.168;4.112;2022-12-24T00:09:57;10.20;38.90
23143;DHT22;11740;51.168;4.112;2022-12-24T00:12:24;10.30;52.40
23143;DHT22;11740;51.168;4.112;2022-12-24T00:14:51;10.20;55.70
23143;DHT22;11740;51.168;4.112;2022-12-24T00:17:18;10.20;68.40
23143;DHT22;11740;51.168;4.112;2022-12-24T00:19:45;10.20;78.80
23143;DHT22;11740;51.168;4.112;2022-12-24T00:22:12;10.20;99.90
23143;DHT22;11740;51.168;4.112;2022-12-24T00:24:39;10.20;99.90
23143;DHT22;11740;51.168;4.112;2022-12-24T00:27:06;10.20;87.90
23143;DHT22;11740;51.168;4.112;2022-12-24T00:29:33;10.20;63.70
23143;DHT22;11740;51.168;4.112;2022-12-24T00:31:59;10.20;87.90
23143;DHT22;11740;51.168;4.112;2022-12-24T00:34:26;10.20;74.40
23143;DHT22;11740;51.168;4.112;2022-12-24T00:36:53;10.20;71.10
23143;DHT22;11740;51.168;4.112;2022-12-24T00:39:20;10.20;99.90
23143;DHT22;11740;51.168;4.112;2022-12-24T00:41:47;10.20;99.90
23143;DHT22;11740;51.168;4.112;2022-12-24T00:44:13;10.20;99.90
23143;DHT22;11740;51.168;4.112;2022-12-24T00:46:40;10.20;99.90
23143;DHT22;11740;51.168;4.112;2022-12-24T00:49:08;10.20;99.90
23143;DHT22;11740;51.168;4.112;2022-12-24T00:51:35;10.20;99.90
23143;DHT22;11740;51.168;4.112;2022-12-24T00:54:02;10.20;99.90
23143;DHT22;11740;51.168;4.112;2022-12-24T00:56:30;10.20;99.90
23143;DHT22;11740;51.168;4.112;2022-12-24T00:58:57;10.20;99.90
23143;DHT22;11740;51.168;4.112;2022-12-24T01:01:24;10.20;99.90
23143;DHT22;11740;51.168;4.112;2022-12-24T01:03:52;10.20;99.90
23143;DHT22;11740;51.168;4.112;2022-12-24T01:06:39;10.20;99.90
23143;DHT22;11740;51.168;4.112;2022-12-24T01:09:06;10.30;99.90
23143;DHT22;11740;51.168;4.112;2022-12-24T01:11:33;10.30;99.90
23143;DHT22;11740;51.168;4.112;2022-12-24T01:13:59;10.30;99.90
23143;DHT22;11740;51.168;4.112;2022-12-24T01:16:26;10.30;99.90
23143;DHT22;11740;51.168;4.112;2022-12-24T01:18:53;10.30;99.90
23143;DHT22;11740;51.168;4.112;2022-12-24T01:21:20;10.20;99.90
23143;DHT22;11740;51.168;4.112;2022-12-24T01:23:47;10.30;99.90
23143;DHT22;11740;51.168;4.112;2022-12-24T01:26:14;10.30;99.90
23143;DHT22;11740;51.168;4.112;2022-12-24T01:28:41;10.30;99.90
23143;DHT22;11740;51.168;4.112;2022-12-24T01:31:11;10.30;99.90
23143;DHT22;11740;51.168;4.112;2022-12-24T01:33:43;10.30;99.90
23143;DHT22;11740;51.168;4.112;2022-12-24T01:36:13;10.30;1.00
23143;DHT22;11740;51.168;4.112;2022-12-24T01:38:40;10.30;1.00
23143;DHT22;11740;51.168;4.112;2022-12-24T01:41:12;10.30;1.00
23143;DHT22;11740;51.168;4.112;2022-12-24T01:44:14;10.30;1.00
23143;DHT22;11740;51.168;4.112;2022-12-24T01:46:42;10.30;1.00
23143;DHT22;11740;51.168;4.112;2022-12-24T01:49:10;10.30;1.00
23143;DHT22;11740;51.168;4.112;2022-12-24T01:51:41;10.30;1.00
23143;DHT22;11740;51.168;4.112;2022-12-24T01:56:39;10.30;1.00
23143;DHT22;11740;51.168;4.112;2022-12-24T01:59:11;10.20;1.00
23143;DHT22;11740;51.168;4.112;2022-12-24T02:01:40;10.20;1.00
23143;DHT22;11740;51.168;4.112;2022-12-24T02:04:55;10.20;1.00
23143;DHT22;11740;51.168;4.112;2022-12-24T02:07:08;10.20;1.00
23143;DHT22;11740;51.168;4.112;2022-12-24T02:09:35;10.20;1.00
23143;DHT22;11740;51.168;4.112;2022-12-24T02:12:03;10.20;1.00
23143;DHT22;11740;51.168;4.112;2022-12-24T02:14:30;10.20;1.00
23143;DHT22;11740;51.168;4.112;2022-12-24T02:17:00;10.20;12.20
23143;DHT22;11740;51.168;4.112;2022-12-24T02:27:56;10.20;99.90
23143;DHT22;11740;51.168;4.112;2022-12-24T02:30:41;10.30;99.90
23143;DHT22;11740;51.168;4.112;2022-12-24T02:33:26;10.20;94.00
23143;DHT22;11740;51.168;4.112;2022-12-24T02:35:58;10.20;99.90
23143;DHT22;11740;51.168;4.112;2022-12-24T02:38:28;10.20;99.90
23143;DHT22;11740;51.168;4.112;2022-12-24T02:41:06;10.30;99.90
23143;DHT22;11740;51.168;4.112;2022-12-24T02:43:37;10.30;97.00
23143;DHT22;11740;51.168;4.112;2022-12-24T02:46:11;10.20;49.30
23143;DHT22;11740;51.168;4.112;2022-12-24T02:48:40;10.20;30.80
23143;DHT22;11740;51.168;4.112;2022-12-24T02:51:08;10.20;16.20
23143;DHT22;11740;51.168;4.112;2022-12-24T02:53:36;10.30;1.00
23143;DHT22;11740;51.168;4.112;2022-12-24T03:01:47;10.30;1.00
23143;DHT22;11740;51.168;4.112;2022-12-24T03:09:27;10.30;1.00
23143;DHT22;11740;51.168;4.112;2022-12-24T03:12:03;10.30;1.00
23143;DHT22;11740;51.168;4.112;2022-12-24T03:14:36;10.30;1.00
23143;DHT22;11740;51.168;4.112;2022-12-24T03:17:04;10.30;1.00
23143;DHT22;11740;51.168;4.112;2022-12-24T03:19:31;10.20;1.00
23143;DHT22;11740;51.168;4.112;2022-12-24T03:21:58;10.20;1.00
23143;DHT22;11740;51.168;4.112;2022-12-24T03:24:26;10.30;1.00
23143;DHT22;11740;51.168;4.112;2022-12-24T03:26:53;10.20;1.00
23143;DHT22;11740;51.168;4.112;2022-12-24T03:29:20;10.20;1.00
23143;DHT22;11740;51.168;4.112;2022-12-24T03:31:48;10.30;1.00
23143;DHT22;11740;51.168;4.112;2022-12-24T03:34:17;10.20;1.00
23143;DHT22;11740;51.168;4.112;2022-12-24T03:36:44;10.20;1.00
23143;DHT22;11740;51.168;4.112;2022-12-24T03:39:12;10.20;1.00
23143;DHT22;11740;51.168;4.112;2022-12-24T03:41:39;10.20;1.00
23143;DHT22;11740;51.168;4.112;2022-12-24T03:44:06;10.20;1.00
23143;DHT22;11740;51.168;4.112;2022-12-24T03:46:33;10.20;1.00
23143;DHT22;11740;51.168;4.112;2022-12-24T03:49:00;10.20;1.00
23143;DHT22;11740;51.168;4.112;2022-12-24T03:51:27;10.20;1.00
23143;DHT22;11740;51.168;4.112;2022-12-24T03:53:54;10.20;1.00
23143;DHT22;11740;51.168;4.112;2022-12-24T03:56:22;10.20;1.00
23143;DHT22;11740;51.168;4.112;2022-12-24T03:58:49;10.10;1.00
23143;DHT22;11740;51.168;4.112;2022-12-24T04:01:17;10.10;1.00
23143;DHT22;11740;51.168;4.112;2022-12-24T04:03:44;10.10;1.00
23143;DHT22;11740;51.168;4.112;2022-12-24T04:06:12;10.10;1.00
23143;DHT22;11740;51.168;4.112;2022-12-24T04:08:41;10.00;1.00
23143;DHT22;11740;51.168;4.112;2022-12-24T04:11:09;10.00;1.00
23143;DHT22;11740;51.168;4.112;2022-12-24T04:13:37;10.00;1.00
23143;DHT22;11740;51.168;4.112;2022-12-24T04:16:05;10.00;1.00
23143;DHT22;11740;51.168;4.112;2022-12-24T04:18:34;10.00;1.00
23143;DHT22;11740;51.168;4.112;2022-12-24T04:21:01;10.00;1.00
23143;DHT22;11740;51.168;4.112;2022-12-24T04:23:29;9.90;1.00
23143;DHT22;11740;51.168;4.112;2022-12-24T04:26:04;9.90;1.00
23143;DHT22;11740;51.168;4.112;2022-12-24T04:28:32;9.90;1.00
23143;DHT22;11740;51.168;4.112;2022-12-24T04:30:59;9.90;1.00
23143;DHT22;11740;51.168;4.112;2022-12-24T04:33:27;9.90;1.00
23143;DHT22;11740;51.168;4.112;2022-12-24T04:35:58;10.00;1.00
23143;DHT22;11740;51.168;4.112;2022-12-24T04:38:26;9.90;1.00
23143;DHT22;11740;51.168;4.112;2022-12-24T04:40:57;10.00;1.00
23143;DHT22;11740;51.168;4.112;2022-12-24T04:43:25;9.90;1.00
23143;DHT22;11740;51.168;4.112;2022-12-24T04:45:53;9.90;1.00
23143;DHT22;11740;51.168;4.112;2022-12-24T04:48:20;9.90;1.00
23143;DHT22;11740;51.168;4.112;2022-12-24T04:50:47;9.90;1.00
23143;DHT22;11740;51.168;4.112;2022-12-24T04:53:13;9.80;1.00
23143;DHT22;11740;51.168;4.112;2022-12-24T04:55:44;9.90;1.00
23143;DHT22;11740;51.168;4.112;2022-12-24T04:58:11;9.80;1.00
23143;DHT22;11740;51.168;4.112;2022-12-24T05:00:39;9.80;1.00
23143;DHT22;11740;51.168;4.112;2022-12-24T05:03:06;9.80;1.00
23143;DHT22;11740;51.168;4.112;2022-12-24T05:05:33;9.80;1.00
23143;DHT22;11740;51.168;4.112;2022-12-24T05:08:00;9.80;1.00
23143;DHT22;11740;51.168;4.112;2022-12-24T05:10:26;9.80;1.00
23143;DHT22;11740;51.168;4.112;2022-12-24T05:12:54;9.80;1.00
23143;DHT22;11740;51.168;4.112;2022-12-24T05:15:21;9.70;1.00
23143;DHT22;11740;51.168;4.112;2022-12-24T05:17:48;9.70;1.00
23143;DHT22;11740;51.168;4.112;2022-12-24T05:20:15;9.70;1.00
23143;DHT22;11740;51.168;4.112;2022-12-24T05:22:42;9.70;1.00
23143;DHT22;11740;51.168;4.112;2022-12-24T05:25:30;9.70;1.00
23143;DHT22;11740;51.168;4.112;2022-12-24T05:28:17;9.70;1.00
23143;DHT22;11740;51.168;4.112;2022-12-24T05:30:44;9.60;1.00
23143;DHT22;11740;51.168;4.112;2022-12-24T05:33:11;9.60;1.00
23143;DHT22;11740;51.168;4.112;2022-12-24T05:35:37;9.60;1.00
23143;DHT22;11740;51.168;4.112;2022-12-24T05:38:04;9.60;1.00
23143;DHT22;11740;51.168;4.112;2022-12-24T05:40:31;9.60;1.00
23143;DHT22;11740;51.168;4.112;2022-12-24T05:42:58;9.60;1.00
23143;DHT22;11740;51.168;4.112;2022-12-24T05:45:25;9.60;1.00
23143;DHT22;11740;51.168;4.112;2022-12-24T05:47:52;9.60;1.00
23143;DHT22;11740;51.168;4.112;2022-12-24T05:50:18;9.60;1.00
23143;DHT22;11740;51.168;4.112;2022-12-24T05:52:45;9.60;1.00
23143;DHT22;11740;51.168;4.112;2022-12-24T05:55:12;9.60;1.00
23143;DHT22;11740;51.168;4.112;2022-12-24T05:57:39;9.60;1.00
23143;DHT22;11740;51.168;4.112;2022-12-24T06:00:07;9.60;1.00
23143;DHT22;11740;51.168;4.112;2022-12-24T06:02:34;9.60;1.00
23143;DHT22;11740;51.168;4.112;2022-12-24T06:05:01;9.60;1.00
23143;DHT22;11740;51.168;4.112;2022-12-24T06:07:28;9.70;1.00
23143;DHT22;11740;51.168;4.112;2022-12-24T06:09:55;9.60;1.00
23143;DHT22;11740;51.168;4.112;2022-12-24T06:12:22;9.70;1.00
23143;DHT22;11740;51.168;4.112;2022-12-24T06:14:48;9.60;1.00
23143;DHT22;11740;51.168;4.112;2022-12-24T06:17:15;9.70;1.00
23143;DHT22;11740;51.168;4.112;2022-12-24T06:19:42;9.70;1.00
23143;DHT22;11740;51.168;4.112;2022-12-24T06:22:09;9.70;5.40
23143;DHT22;11740;51.168;4.112;2022-12-24T06:24:36;9.70;13.40
23143;DHT22;11740;51.168;4.112;2022-12-24T06:27:03;9.70;53.20
23143;DHT22;11740;51.168;4.112;2022-12-24T06:29:30;9.60;46.50
23143;DHT22;11740;51.168;4.112;2022-12-24T06:31:57;9.70;21.20
23143;DHT22;11740;51.168;4.112;2022-12-24T06:34:23;9.70;16.10
23143;DHT22;11740;51.168;4.112;2022-12-24T06:36:50;9.60;15.10
23143;DHT22;11740;51.168;4.112;2022-12-24T06:39:17;9.60;28.00
23143;DHT22;11740;51.168;4.112;2022-12-24T06:41:44;9.70;13.80
23143;DHT22;11740;51.168;4.112;2022-12-24T06:44:11;9.60;15.00
23143;DHT22;11740;51.168;4.112;2022-12-24T06:46:38;9.60;19.20
23143;DHT22;11740;51.168;4.112;2022-12-24T06:49:04;9.70;24.40
23143;DHT22;11740;51.168;4.112;2022-12-24T06:51:31;9.60;23.20
23143;DHT22;11740;51.168;4.112;2022-12-24T06:53:58;9.60;62.60
23143;DHT22;11740;51.168;4.112;2022-12-24T06:56:25;9.60;52.90
23143;DHT22;11740;51.168;4.112;2022-12-24T06:58:52;9.60;66.40
23143;DHT22;11740;51.168;4.112;2022-12-24T07:01:19;9.60;95.40
23143;DHT22;11740;51.168;4.112;2022-12-24T07:03:46;9.60;99.90
23143;DHT22;11740;51.168;4.112;2022-12-24T07:06:15;9.60;99.90
23143;DHT22;11740;51.168;4.112;2022-12-24T07:08:44;9.60;99.90
23143;DHT22;11740;51.168;4.112;2022-12-24T07:11:11;9.60;99.90
23143;DHT22;11740;51.168;4.112;2022-12-24T07:13:38;9.60;99.90
23143;DHT22;11740;51.168;4.112;2022-12-24T07:16:04;9.60;99.90
23143;DHT22;11740;51.168;4.112;2022-12-24T07:18:32;9.60;99.90
23143;DHT22;11740;51.168;4.112;2022-12-24T07:20:59;9.60;99.90
23143;DHT22;11740;51.168;4.112;2022-12-24T07:23:26;9.60;99.90
23143;DHT22;11740;51.168;4.112;2022-12-24T07:25:53;9.60;99.90
23143;DHT22;11740;51.168;4.112;2022-12-24T07:28:20;9.60;99.90
23143;DHT22;11740;51.168;4.112;2022-12-24T07:30:54;9.60;99.90
23143;DHT22;11740;51.168;4.112;2022-12-24T07:33:22;9.60;99.90
23143;DHT22;11740;51.168;4.112;2022-12-24T07:35:56;9.60;99.90
23143;DHT22;11740;51.168;4.112;2022-12-24T07:38:23;9.60;99.90
23143;DHT22;11740;51.168;4.112;2022-12-24T07:40:50;9.60;99.90
23143;DHT22;11740;51.168;4.112;2022-12-24T07:43:17;9.60;99.90
23143;DHT22;11740;51.168;4.112;2022-12-24T07:45:44;9.60;81.30
23143;DHT22;11740;51.168;4.112;2022-12-24T07:48:11;9.60;67.30
23143;DHT22;11740;51.168;4.112;2022-12-24T07:50:37;9.60;52.80
23143;DHT22;11740;51.168;4.112;2022-12-24T07:53:04;9.60;25.90
23143;DHT22;11740;51.168;4.112;2022-12-24T07:55:31;9.60;21.60
23143;DHT22;11740;51.168;4.112;2022-12-24T07:57:58;9.50;20.80
23143;DHT22;11740;51.168;4.112;2022-12-24T08:00:25;9.60;15.50
23143;DHT22;11740;51.168;4.112;2022-12-24T08:02:51;9.50;29.70
23143;DHT22;11740;51.168;4.112;2022-12-24T08:05:19;9.50;14.00
23143;DHT22;11740;51.168;4.112;2022-12-24T08:07:45;9.60;24.10
23143;DHT22;11740;51.168;4.112;2022-12-24T08:10:12;9.50;31.90
23143;DHT22;11740;51.168;4.112;2022-12-24T08:12:39;9.60;36.70
23143;DHT22;11740;51.168;4.112;2022-12-24T08:15:06;9.60;62.60
23143;DHT22;11740;51.168;4.112;2022-12-24T08:17:33;9.50;34.00
23143;DHT22;11740;51.168;4.112;2022-12-24T08:20:00;9.60;52.70
23143;DHT22;11740;51.168;4.112;2022-12-24T08:22:27;9.50;19.10
23143;DHT22;11740;51.168;4.112;2022-12-24T08:24:54;9.60;14.40
23143;DHT22;11740;51.168;4.112;2022-12-24T08:27:20;9.60;13.90
23143;DHT22;11740;51.168;4.112;2022-12-24T08:29:47;9.50;1.00
23143;DHT22;11740;51.168;4.112;2022-12-24T08:32:14;9.60;1.00
23143;DHT22;11740;51.168;4.112;2022-12-24T08:34:41;9.60;1.00
23143;DHT22;11740;51.168;4.112;2022-12-24T08:37:08;9.60;1.00
23143;DHT22;11740;51.168;4.112;2022-12-24T08:39:35;9.70;1.00
23143;DHT22;11740;51.168;4.112;2022-12-24T08:42:02;9.70;1.00
23143;DHT22;11740;51.168;4.112;2022-12-24T08:44:29;9.70;1.00
23143;DHT22;11740;51.168;4.112;2022-12-24T08:46:56;9.70;1.00
23143;DHT22;11740;51.168;4.112;2022-12-24T08:49:23;9.70;1.00
23143;DHT22;11740;51.168;4.112;2022-12-24T08:51:50;9.70;1.00
23143;DHT22;11740;51.168;4.112;2022-12-24T08:54:17;9.60;1.00
23143;DHT22;11740;51.168;4.112;2022-12-24T08:56:44;9.70;1.00
23143;DHT22;11740;51.168;4.112;2022-12-24T08:59:11;9.60;1.00
23143;DHT22;11740;51.168;4.112;2022-12-24T09:01:38;9.60;1.00
23143;DHT22;11740;51.168;4.112;2022-12-24T09:04:05;9.60;1.00
23143;DHT22;11740;51.168;4.112;2022-12-24T09:06:32;9.60;1.00
23143;DHT22;11740;51.168;4.112;2022-12-24T09:08:59;9.60;1.00
23143;DHT22;11740;51.168;4.112;2022-12-24T09:11:26;9.60;1.00
23143;DHT22;11740;51.168;4.112;2022-12-24T09:13:53;9.60;1.00
23143;DHT22;11740;51.168;4.112;2022-12-24T09:16:20;9.60;1.00
23143;DHT22;11740;51.168;4.112;2022-12-24T09:18:47;9.60;1.00
23143;DHT22;11740;51.168;4.112;2022-12-24T09:21:15;9.60;1.00
23143;DHT22;11740;51.168;4.112;2022-12-24T09:23:43;9.60;1.00
23143;DHT22;11740;51.168;4.112;2022-12-24T09:26:15;9.60;1.00
23143;DHT22;11740;51.168;4.112;2022-12-24T09:28:44;9.70;1.00
23143;DHT22;11740;51.168;4.112;2022-12-24T09:31:11;9.60;1.00
23143;DHT22;11740;51.168;4.112;2022-12-24T09:33:39;9.70;1.00
23143;DHT22;11740;51.168;4.112;2022-12-24T09:36:07;9.70;1.00
23143;DHT22;11740;51.168;4.112;2022-12-24T09:38:34;9.70;1.00
23143;DHT22;11740;51.168;4.112;2022-12-24T09:41:10;9.70;1.00
23143;DHT22;11740;51.168;4.112;2022-12-24T09:43:45;9.70;1.00
23143;DHT22;11740;51.168;4.112;2022-12-24T09:46:36;9.80;1.00
23143;DHT22;11740;51.168;4.112;2022-12-24T09:49:07;9.80;1.00
23143;DHT22;11740;51.168;4.112;2022-12-24T09:51:50;9.80;1.00
23143;DHT22;11740;51.168;4.112;2022-12-24T09:56:49;9.80;1.00
23143;DHT22;11740;51.168;4.112;2022-12-24T09:59:17;9.80;1.00
23143;DHT22;11740;51.168;4.112;2022-12-24T10:01:48;9.80;1.00
23143;DHT22;11740;51.168;4.112;2022-12-24T10:04:17;9.80;1.00
23143;DHT22;11740;51.168;4.112;2022-12-24T10:06:51;9.80;1.00
23143;DHT22;11740;51.168;4.112;2022-12-24T10:23:01;9.90;1.00
23143;DHT22;11740;51.168;4.112;2022-12-24T10:27:59;9.90;1.00
23143;DHT22;11740;51.168;4.112;2022-12-24T10:30:28;10.00;1.00
23143;DHT22;11740;51.168;4.112;2022-12-24T10:32:55;10.00;1.00
23143;DHT22;11740;51.168;4.112;2022-12-24T10:35:24;10.00;1.00
23143;DHT22;11740;51.168;4.112;2022-12-24T10:37:53;10.00;1.00
23143;DHT22;11740;51.168;4.112;2022-12-24T10:40:26;10.00;1.00
23143;DHT22;11740;51.168;4.112;2022-12-24T10:43:00;10.00;1.00
23143;DHT22;11740;51.168;4.112;2022-12-24T10:45:30;10.00;1.00
23143;DHT22;11740;51.168;4.112;2022-12-24T10:48:04;10.00;1.00
23143;DHT22;11740;51.168;4.112;2022-12-24T10:50:34;10.10;1.00
23143;DHT22;11740;51.168;4.112;2022-12-24T10:53:19;10.10;1.00
23143;DHT22;11740;51.168;4.112;2022-12-24T10:55:47;10.10;1.00
23143;DHT22;11740;51.168;4.112;2022-12-24T10:58:16;10.20;1.00
23143;DHT22;11740;51.168;4.112;2022-12-24T11:00:48;10.30;1.00
23143;DHT22;11740;51.168;4.112;2022-12-24T11:03:19;10.30;1.00
23143;DHT22;11740;51.168;4.112;2022-12-24T11:05:59;10.40;1.00
23143;DHT22;11740;51.168;4.112;2022-12-24T11:08:25;10.40;1.00
23143;DHT22;11740;51.168;4.112;2022-12-24T11:10:54;10.50;1.00
23143;DHT22;11740;51.168;4.112;2022-12-24T11:16:06;10.50;1.00
23143;DHT22;11740;51.168;4.112;2022-12-24T11:18:37;10.50;1.00
23143;DHT22;11740;51.168;4.112;2022-12-24T11:21:18;10.40;1.00
23143;DHT22;11740;51.168;4.112;2022-12-24T11:23:50;10.50;1.00
23143;DHT22;11740;51.168;4.112;2022-12-24T11:26:24;10.50;1.00
23143;DHT22;11740;51.168;4.112;2022-12-24T11:31:34;10.50;1.00
23143;DHT22;11740;51.168;4.112;2022-12-24T11:39:44;10.60;99.90
23143;DHT22;11740;51.168;4.112;2022-12-24T11:42:23;10.60;99.90
23143;DHT22;11740;51.168;4.112;2022-12-24T11:44:52;10.70;99.90
23143;DHT22;11740;51.168;4.112;2022-12-24T11:47:37;10.90;99.90
23143;DHT22;11740;51.168;4.112;2022-12-24T11:50:22;10.90;99.90
23143;DHT22;11740;51.168;4.112;2022-12-24T11:58:31;10.90;99.90
23143;DHT22;11740;51.168;4.112;2022-12-24T12:03:47;11.00;99.90
23143;DHT22;11740;51.168;4.112;2022-12-24T12:08:55;11.10;99.90
23143;DHT22;11740;51.168;4.112;2022-12-24T12:11:23;11.10;99.90
23143;DHT22;11740;51.168;4.112;2022-12-24T12:13:52;11.20;28.10
23143;DHT22;11740;51.168;4.112;2022-12-24T12:19:23;11.20;1.00
23143;DHT22;11740;51.168;4.112;2022-12-24T12:21:51;11.30;1.00
23143;DHT22;11740;51.168;4.112;2022-12-24T12:24:28;11.30;1.00
23143;DHT22;11740;51.168;4.112;2022-12-24T12:30:03;11.30;1.00
23143;DHT22;11740;51.168;4.112;2022-12-24T12:32:44;11.30;1.00
23143;DHT22;11740;51.168;4.112;2022-12-24T12:35:25;11.40;1.00
23143;DHT22;11740;51.168;4.112;2022-12-24T12:38:07;11.40;1.00
23143;DHT22;11740;51.168;4.112;2022-12-24T12:43:24;11.40;1.00
23143;DHT22;11740;51.168;4.112;2022-12-24T12:45:54;11.40;1.00
23143;DHT22;11740;51.168;4.112;2022-12-24T12:48:28;11.40;1.00
23143;DHT22;11740;51.168;4.112;2022-12-24T12:56:30;11.50;1.00
23143;DHT22;11740;51.168;4.112;2022-12-24T12:59:07;11.50;1.00
23143;DHT22;11740;51.168;4.112;2022-12-24T13:20:25;11.70;99.90
23143;DHT22;11740;51.168;4.112;2022-12-24T13:22:56;11.70;99.90
23143;DHT22;11740;51.168;4.112;2022-12-24T13:25:35;11.70;99.90
23143;DHT22;11740;51.168;4.112;2022-12-24T13:36:11;11.70;99.90
23143;DHT22;11740;51.168;4.112;2022-12-24T13:38:40;11.70;99.90
23143;DHT22;11740;51.168;4.112;2022-12-24T13:49:17;11.80;99.90
23143;DHT22;11740;51.168;4.112;2022-12-24T13:51:45;11.80;99.90
23143;DHT22;11740;51.168;4.112;2022-12-24T13:54:12;11.70;99.90
23143;DHT22;11740;51.168;4.112;2022-12-24T13:56:40;11.70;99.90
23143;DHT22;11740;51.168;4.112;2022-12-24T13:59:53;11.70;99.90
23143;DHT22;11740;51.168;4.112;2022-12-24T14:02:03;11.70;99.90
23143;DHT22;11740;51.168;4.112;2022-12-24T14:04:33;11.70;99.90
23143;DHT22;11740;51.168;4.112;2022-12-24T14:07:01;11.70;99.90
23143;DHT22;11740;51.168;4.112;2022-12-24T14:09:29;11.70;99.90
23143;DHT22;11740;51.168;4.112;2022-12-24T14:14:25;11.70;99.90
23143;DHT22;11740;51.168;4.112;2022-12-24T14:16:55;11.80;99.90
23143;DHT22;11740;51.168;4.112;2022-12-24T14:19:24;11.80;99.90
23143;DHT22;11740;51.168;4.112;2022-12-24T14:22:48;11.80;99.90
23143;DHT22;11740;51.168;4.112;2022-12-24T14:24:58;11.80;99.90
23143;DHT22;11740;51.168;4.112;2022-12-24T14:30:18;11.80;99.90
23143;DHT22;11740;51.168;4.112;2022-12-24T14:32:46;11.80;99.90
23143;DHT22;11740;51.168;4.112;2022-12-24T14:35:18;11.80;99.90
23143;DHT22;11740;51.168;4.112;2022-12-24T14:38:13;11.80;99.90
23143;DHT22;11740;51.168;4.112;2022-12-24T14:40:48;11.80;94.10
23143;DHT22;11740;51.168;4.112;2022-12-24T14:43:34;11.80;99.90
23143;DHT22;11740;51.168;4.112;2022-12-24T14:48:55;11.80;99.90
23143;DHT22;11740;51.168;4.112;2022-12-24T14:56:41;11.80;99.90
23143;DHT22;11740;51.168;4.112;2022-12-24T14:59:15;11.80;99.90
23143;DHT22;11740;51.168;4.112;2022-12-24T15:01:43;11.80;23.40
23143;DHT22;11740;51.168;4.112;2022-12-24T15:09:25;11.70;99.90
23143;DHT22;11740;51.168;4.112;2022-12-24T15:11:55;11.70;99.90
23143;DHT22;11740;51.168;4.112;2022-12-24T15:14:25;11.60;74.60
23143;DHT22;11740;51.168;4.112;2022-12-24T15:17:02;11.60;86.50
23143;DHT22;11740;51.168;4.112;2022-12-24T15:19:32;11.60;1.00
23143;DHT22;11740;51.168;4.112;2022-12-24T15:22:01;11.50;78.50
23143;DHT22;11740;51.168;4.112;2022-12-24T15:27:00;11.50;99.90
23143;DHT22;11740;51.168;4.112;2022-12-24T15:29:29;11.50;99.90
23143;DHT22;11740;51.168;4.112;2022-12-24T15:32:01;11.50;89.40
23143;DHT22;11740;51.168;4.112;2022-12-24T15:34:39;11.50;76.70
23143;DHT22;11740;51.168;4.112;2022-12-24T15:39:37;11.50;99.90
23143;DHT22;11740;51.168;4.112;2022-12-24T15:42:05;11.40;41.40
23143;DHT22;11740;51.168;4.112;2022-12-24T15:44:40;11.40;60.80
23143;DHT22;11740;51.168;4.112;2022-12-24T15:47:17;11.40;76.60
23143;DHT22;11740;51.168;4.112;2022-12-24T15:49:49;11.30;77.80
23143;DHT22;11740;51.168;4.112;2022-12-24T15:52:18;11.30;87.00
23143;DHT22;11740;51.168;4.112;2022-12-24T15:54:49;11.30;73.00
23143;DHT22;11740;51.168;4.112;2022-12-24T15:59:54;11.20;1.00
23143;DHT22;11740;51.168;4.112;2022-12-24T16:02:41;11.20;1.00
23143;DHT22;11740;51.168;4.112;2022-12-24T16:08:38;11.20;1.00
23143;DHT22;11740;51.168;4.112;2022-12-24T16:10:53;11.10;1.00
23143;DHT22;11740;51.168;4.112;2022-12-24T16:13:37;11.00;26.00
23143;DHT22;11740;51.168;4.112;2022-12-24T16:16:52;11.00;1.00
23143;DHT22;11740;51.168;4.112;2022-12-24T16:19:30;11.00;99.90
23143;DHT22;11740;51.168;4.112;2022-12-24T16:22:05;11.00;99.90
23143;DHT22;11740;51.168;4.112;2022-12-24T16:24:51;11.10;99.90
23143;DHT22;11740;51.168;4.112;2022-12-24T16:27:18;11.10;99.90
23143;DHT22;11740;51.168;4.112;2022-12-24T16:29:44;11.10;99.90
23143;DHT22;11740;51.168;4.112;2022-12-24T16:32:32;11.00;99.90
23143;DHT22;11740;51.168;4.112;2022-12-24T16:35:01;11.00;99.90
23143;DHT22;11740;51.168;4.112;2022-12-24T16:37:29;11.00;99.90
23143;DHT22;11740;51.168;4.112;2022-12-24T16:39:56;11.00;99.90
23143;DHT22;11740;51.168;4.112;2022-12-24T16:42:23;10.90;99.90
23143;DHT22;11740;51.168;4.112;2022-12-24T16:45:08;10.90;99.90
23143;DHT22;11740;51.168;4.112;2022-12-24T16:47:36;10.90;99.90
23143;DHT22;11740;51.168;4.112;2022-12-24T16:50:13;10.90;99.90
23143;DHT22;11740;51.168;4.112;2022-12-24T16:52:41;10.80;99.90
23143;DHT22;11740;51.168;4.112;2022-12-24T16:55:11;10.80;99.90
23143;DHT22;11740;51.168;4.112;2022-12-24T16:57:38;10.80;99.90
23143;DHT22;11740;51.168;4.112;2022-12-24T17:00:06;10.70;99.90
23143;DHT22;11740;51.168;4.112;2022-12-24T17:02:34;10.70;99.90
23143;DHT22;11740;51.168;4.112;2022-12-24T17:05:01;10.70;99.90
23143;DHT22;11740;51.168;4.112;2022-12-24T17:07:28;10.60;99.90
23143;DHT22;11740;51.168;4.112;2022-12-24T17:09:55;10.60;99.90
23143;DHT22;11740;51.168;4.112;2022-12-24T17:12:22;10.60;99.90
23143;DHT22;11740;51.168;4.112;2022-12-24T17:14:49;10.60;99.90
23143;DHT22;11740;51.168;4.112;2022-12-24T17:17:18;10.60;99.90
23143;DHT22;11740;51.168;4.112;2022-12-24T17:19:50;10.50;99.90
23143;DHT22;11740;51.168;4.112;2022-12-24T17:22:17;10.50;99.90
23143;DHT22;11740;51.168;4.112;2022-12-24T17:24:44;10.50;99.90
23143;DHT22;11740;51.168;4.112;2022-12-24T17:27:11;10.50;99.90
23143;DHT22;11740;51.168;4.112;2022-12-24T17:29:38;10.40;99.90
23143;DHT22;11740;51.168;4.112;2022-12-24T17:32:05;10.40;99.90
23143;DHT22;11740;51.168;4.112;2022-12-24T17:34:32;10.40;99.90
23143;DHT22;11740;51.168;4.112;2022-12-24T17:36:59;10.30;1.00
23143;DHT22;11740;51.168;4.112;2022-12-24T17:39:26;10.30;1.00
23143;DHT22;11740;51.168;4.112;2022-12-24T17:41:53;10.30;1.00
23143;DHT22;11740;51.168;4.112;2022-12-24T17:44:20;10.20;1.00
23143;DHT22;11740;51.168;4.112;2022-12-24T17:46:47;10.20;1.00
23143;DHT22;11740;51.168;4.112;2022-12-24T17:49:14;10.20;1.00
23143;DHT22;11740;51.168;4.112;2022-12-24T17:51:41;10.20;1.00
23143;DHT22;11740;51.168;4.112;2022-12-24T17:54:11;10.10;1.00
23143;DHT22;11740;51.168;4.112;2022-12-24T17:56:38;10.10;1.00
23143;DHT22;11740;51.168;4.112;2022-12-24T17:59:05;10.10;1.00
23143;DHT22;11740;51.168;4.112;2022-12-24T18:01:32;10.10;1.00
23143;DHT22;11740;51.168;4.112;2022-12-24T18:04:00;10.10;1.00
23143;DHT22;11740;51.168;4.112;2022-12-24T18:06:28;10.00;1.00
23143;DHT22;11740;51.168;4.112;2022-12-24T18:08:55;10.00;1.00
23143;DHT22;11740;51.168;4.112;2022-12-24T18:11:24;10.00;1.00
23143;DHT22;11740;51.168;4.112;2022-12-24T18:13:52;10.00;1.00
23143;DHT22;11740;51.168;4.112;2022-12-24T18:16:22;9.90;1.00
23143;DHT22;11740;51.168;4.112;2022-12-24T18:18:51;9.90;1.00
23143;DHT22;11740;51.168;4.112;2022-12-24T18:21:19;9.90;1.00